Time;durP1;ratioP1;P1;durP2;ratioP2;P2;SDS_P1;SDS_P2;PMS_P1;PMS_P2;Temp;Humidity;BMP_temperature;BMP_pressure;BME280_temperature;BME280_humidity;BME280_pressure;Samples;Min_cycle;Max_cycle;Signal;HPM_P1;HPM_P2
2023/10/26 00:01:27;;;;;;;16.98;10.07;;;9.30;99.90;;;;;;5031098;28;20063;-60
2023/10/26 00:03:53;;;;;;;14.32;10.27;;;9.30;99.90;;;;;;5029028;28;20076;-60
2023/10/26 00:06:18;;;;;;;16.88;10.65;;;9.20;99.90;;;;;;5027125;28;20037;-60
2023/10/26 00:08:44;;;;;;;14.55;10.40;;;9.20;99.90;;;;;;5029145;28;20025;-60
2023/10/26 00:11:09;;;;;;;12.38;9.98;;;9.20;99.90;;;;;;5028205;28;20041;-60
2023/10/26 00:13:35;;;;;;;13.95;9.93;;;9.20;99.90;;;;;;5027119;28;20030;-60
2023/10/26 00:16:01;;;;;;;15.48;10.20;;;9.20;99.90;;;;;;5023166;28;20405;-59
2023/10/26 00:18:26;;;;;;;12.90;9.75;;;9.20;99.90;;;;;;5032944;28;20541;-60
2023/10/26 00:20:59;;;;;;;18.30;11.07;;;9.20;99.90;;;;;;5031686;28;20549;-59
2023/10/26 00:23:25;;;;;;;14.75;10.75;;;9.10;99.90;;;;;;5019088;28;20033;-61
2023/10/26 00:25:51;;;;;;;16.25;10.90;;;9.10;99.90;;;;;;5030499;28;20068;-60
2023/10/26 00:28:16;;;;;;;13.52;10.10;;;9.10;99.90;;;;;;5029651;28;20426;-60
2023/10/26 00:30:42;;;;;;;13.20;9.85;;;9.10;99.90;;;;;;5032626;28;20036;-62
2023/10/26 00:33:08;;;;;;;13.07;10.15;;;9.10;99.90;;;;;;5028302;28;20548;-60
2023/10/26 00:35:34;;;;;;;14.70;10.15;;;9.10;99.90;;;;;;5029101;28;20520;-60
2023/10/26 00:37:59;;;;;;;14.18;10.93;;;9.10;99.90;;;;;;5030556;28;20041;-60
2023/10/26 00:40:25;;;;;;;14.50;10.63;;;9.10;99.90;;;;;;5032834;28;20489;-59
2023/10/26 00:42:50;;;;;;;11.40;9.50;;;9.10;99.90;;;;;;5028586;28;20120;-59
2023/10/26 00:45:16;;;;;;;15.18;10.90;;;9.10;99.90;;;;;;5029571;28;20045;-60
2023/10/26 00:47:42;;;;;;;18.70;10.38;;;9.00;99.90;;;;;;5031900;28;20182;-60
2023/10/26 00:50:08;;;;;;;16.35;9.98;;;9.10;99.90;;;;;;5029596;28;20037;-60
2023/10/26 00:52:36;;;;;;;15.02;10.00;;;9.00;99.90;;;;;;5028419;28;20467;-61
2023/10/26 00:55:06;;;;;;;13.93;9.85;;;9.00;99.90;;;;;;5026739;28;20059;-61
2023/10/26 00:57:32;;;;;;;13.57;9.77;;;9.00;99.90;;;;;;5024257;28;20030;-60
2023/10/26 00:59:59;;;;;;;16.20;10.65;;;9.00;99.90;;;;;;5027705;28;20445;-60
2023/10/26 01:02:25;;;;;;;16.02;10.45;;;9.00;99.90;;;;;;5023910;28;20044;-60
2023/10/26 01:04:51;;;;;;;19.30;9.77;;;9.00;99.90;;;;;;5026206;28;20049;-59
2023/10/26 01:07:17;;;;;;;12.95;9.07;;;9.00;99.90;;;;;;5028277;28;20029;-60
2023/10/26 01:09:43;;;;;;;13.93;10.45;;;9.00;99.90;;;;;;5029431;28;20036;-59
2023/10/26 01:12:09;;;;;;;16.25;10.30;;;9.00;99.90;;;;;;5026732;28;20041;-57
2023/10/26 01:14:34;;;;;;;13.48;9.70;;;9.00;99.90;;;;;;5028948;28;20033;-60
2023/10/26 01:17:01;;;;;;;13.55;9.02;;;9.00;99.90;;;;;;5027880;28;20034;-60
2023/10/26 01:19:45;;;;;;;14.23;10.07;;;8.90;99.90;;;;;;5028539;28;20026;-60
2023/10/26 01:22:11;;;;;;;14.27;9.05;;;9.00;99.90;;;;;;5026778;28;20725;-60
2023/10/26 01:24:37;;;;;;;16.33;10.70;;;9.00;99.90;;;;;;5029443;28;20037;-60
2023/10/26 01:27:04;;;;;;;11.23;8.77;;;9.00;99.90;;;;;;5030273;28;20048;-59
2023/10/26 01:29:30;;;;;;;14.65;9.80;;;9.00;99.90;;;;;;5030085;28;20116;-61
2023/10/26 01:31:55;;;;;;;12.88;10.05;;;9.00;99.90;;;;;;5027854;28;20108;-58
2023/10/26 01:34:21;;;;;;;11.13;9.18;;;9.00;99.90;;;;;;5020352;28;20033;-57
2023/10/26 01:36:46;;;;;;;13.02;9.23;;;9.00;99.90;;;;;;5023071;28;20021;-60
2023/10/26 01:39:13;;;;;;;14.57;9.88;;;8.90;99.90;;;;;;5027768;28;20091;-60
2023/10/26 01:41:39;;;;;;;12.18;8.90;;;9.00;99.90;;;;;;5023701;28;20543;-59
2023/10/26 01:44:04;;;;;;;14.07;9.02;;;9.00;99.90;;;;;;5028105;28;20037;-60
2023/10/26 01:46:30;;;;;;;13.80;10.00;;;8.90;99.90;;;;;;5027781;28;20102;-59
2023/10/26 01:48:56;;;;;;;12.15;9.93;;;8.90;99.90;;;;;;5025704;28;20484;-60
2023/10/26 01:51:21;;;;;;;14.70;9.75;;;9.00;99.90;;;;;;5023473;28;20041;-61
2023/10/26 01:53:47;;;;;;;13.55;10.55;;;9.00;99.90;;;;;;5026468;28;20413;-61
2023/10/26 01:56:12;;;;;;;14.48;10.07;;;9.00;99.90;;;;;;5024900;28;20405;-59
2023/10/26 01:58:38;;;;;;;15.02;10.48;;;9.00;99.90;;;;;;5027553;28;20037;-59
2023/10/26 02:01:05;;;;;;;12.40;9.80;;;9.00;99.90;;;;;;5021992;28;20033;-60
2023/10/26 02:03:31;;;;;;;15.20;10.00;;;9.00;99.90;;;;;;5024910;28;20029;-58
2023/10/26 02:05:56;;;;;;;14.60;10.50;;;9.00;99.90;;;;;;5021012;28;20052;-60
2023/10/26 02:08:22;;;;;;;18.00;11.25;;;9.00;99.90;;;;;;5024731;28;20030;-59
2023/10/26 02:10:47;;;;;;;14.10;9.43;;;9.00;99.90;;;;;;5026591;28;20204;-59
2023/10/26 02:13:13;;;;;;;13.60;9.85;;;9.00;99.90;;;;;;5023280;28;20483;-60
2023/10/26 02:15:38;;;;;;;13.90;9.88;;;9.00;99.90;;;;;;5024920;28;20066;-59
2023/10/26 02:18:04;;;;;;;13.85;10.20;;;9.00;99.90;;;;;;5028908;28;20025;-61
2023/10/26 02:20:29;;;;;;;14.75;10.35;;;9.00;99.90;;;;;;5031496;28;20060;-61
2023/10/26 02:22:55;;;;;;;14.02;10.55;;;9.00;99.90;;;;;;5027553;28;20021;-61
2023/10/26 02:25:20;;;;;;;14.10;10.75;;;9.00;99.90;;;;;;5028054;28;20091;-61
2023/10/26 02:27:46;;;;;;;14.30;9.88;;;8.90;99.90;;;;;;5030601;28;20025;-60
2023/10/26 02:30:12;;;;;;;15.52;10.55;;;9.00;99.90;;;;;;5028661;28;21003;-61
2023/10/26 02:32:39;;;;;;;13.02;10.52;;;9.00;99.90;;;;;;5027441;28;20112;-60
2023/10/26 02:35:05;;;;;;;16.50;10.30;;;9.00;99.90;;;;;;5029537;28;20017;-61
2023/10/26 02:37:32;;;;;;;17.77;11.57;;;9.00;99.90;;;;;;5025561;28;20482;-60
2023/10/26 02:39:58;;;;;;;14.55;10.10;;;9.00;99.90;;;;;;5029338;28;20018;-60
2023/10/26 02:42:24;;;;;;;16.83;11.60;;;9.00;99.90;;;;;;5026901;28;20056;-60
2023/10/26 02:44:49;;;;;;;12.65;9.27;;;9.00;99.90;;;;;;5023597;28;20029;-60
2023/10/26 02:47:15;;;;;;;11.40;9.15;;;9.00;99.90;;;;;;5028550;28;20034;-60
2023/10/26 02:49:41;;;;;;;12.02;9.25;;;9.00;99.90;;;;;;5028067;28;20108;-59
2023/10/26 02:52:06;;;;;;;11.73;9.23;;;9.00;99.90;;;;;;5027365;28;20116;-61
2023/10/26 02:54:32;;;;;;;17.55;10.30;;;9.00;99.90;;;;;;5028453;28;20418;-60
2023/10/26 02:56:57;;;;;;;13.27;10.02;;;9.10;99.90;;;;;;5027111;28;20836;-61
2023/10/26 02:59:23;;;;;;;13.38;11.20;;;9.00;99.90;;;;;;5026368;28;20568;-60
2023/10/26 03:01:48;;;;;;;15.02;10.70;;;9.10;99.90;;;;;;5029055;28;20029;-60
2023/10/26 03:04:14;;;;;;;13.88;10.32;;;9.00;99.90;;;;;;5023136;28;20033;-61
2023/10/26 03:06:40;;;;;;;14.40;10.75;;;9.10;99.90;;;;;;5025930;28;20563;-60
2023/10/26 03:09:08;;;;;;;16.77;12.93;;;9.10;99.90;;;;;;5026399;28;20056;-60
2023/10/26 03:11:34;;;;;;;16.38;11.07;;;9.10;99.90;;;;;;5026901;28;20045;-60
2023/10/26 03:14:00;;;;;;;15.50;11.75;;;9.10;99.90;;;;;;5028164;28;20117;-60
2023/10/26 03:16:26;;;;;;;16.10;10.88;;;9.10;99.90;;;;;;5028129;28;20104;-61
2023/10/26 03:18:52;;;;;;;14.77;11.77;;;9.10;99.90;;;;;;5028323;28;20469;-62
2023/10/26 03:21:20;;;;;;;16.70;11.70;;;9.10;99.90;;;;;;5028075;28;20017;-59
2023/10/26 03:23:52;;;;;;;15.25;11.35;;;9.10;99.90;;;;;;5027103;28;20622;-58
2023/10/26 03:26:20;;;;;;;13.68;10.75;;;9.10;99.90;;;;;;5028028;28;20029;-59
2023/10/26 03:28:49;;;;;;;13.52;9.48;;;9.10;99.90;;;;;;5026178;28;20025;-60
2023/10/26 03:31:14;;;;;;;13.85;10.13;;;9.10;99.90;;;;;;5026141;28;20037;-60
2023/10/26 03:33:40;;;;;;;16.52;11.13;;;9.10;99.90;;;;;;5026658;28;20030;-61
2023/10/26 03:36:13;;;;;;;15.27;11.07;;;9.10;99.90;;;;;;5032597;28;20026;-59
2023/10/26 03:38:39;;;;;;;15.68;11.40;;;9.10;99.90;;;;;;5025767;28;20025;-60
2023/10/26 03:41:04;;;;;;;16.88;11.60;;;9.10;99.90;;;;;;5026101;28;20040;-61
2023/10/26 03:43:30;;;;;;;17.05;11.70;;;9.10;99.90;;;;;;5026624;28;20041;-61
2023/10/26 03:45:55;;;;;;;19.90;11.38;;;9.10;99.90;;;;;;5016373;28;20041;-60
2023/10/26 03:48:21;;;;;;;17.23;12.30;;;9.10;99.90;;;;;;5027237;28;20033;-61
2023/10/26 03:50:46;;;;;;;19.35;12.30;;;9.10;99.90;;;;;;5025810;28;20029;-59
2023/10/26 03:53:12;;;;;;;18.45;12.23;;;9.10;99.90;;;;;;5025785;28;20061;-60
2023/10/26 03:55:37;;;;;;;16.73;11.68;;;9.10;99.90;;;;;;5026857;28;20026;-60
2023/10/26 03:58:03;;;;;;;18.95;11.55;;;9.10;99.90;;;;;;5027439;28;20033;-61
2023/10/26 04:00:29;;;;;;;17.38;11.65;;;9.10;99.90;;;;;;5028064;28;20052;-60
2023/10/26 04:02:54;;;;;;;15.15;11.07;;;9.10;99.90;;;;;;5027976;28;20028;-61
2023/10/26 04:05:20;;;;;;;15.55;11.30;;;9.10;99.90;;;;;;5026197;28;20033;-60
2023/10/26 04:07:45;;;;;;;17.85;11.82;;;9.10;99.90;;;;;;5025258;28;20037;-57
2023/10/26 04:10:11;;;;;;;16.23;11.25;;;9.10;99.90;;;;;;5025755;28;20041;-60
2023/10/26 04:12:36;;;;;;;15.70;11.50;;;9.10;99.90;;;;;;5026572;28;20061;-60
2023/10/26 04:15:03;;;;;;;15.60;11.35;;;9.10;99.90;;;;;;5025110;28;20514;-61
2023/10/26 04:17:28;;;;;;;14.40;10.70;;;9.10;99.90;;;;;;5026998;28;20098;-60
2023/10/26 04:19:54;;;;;;;17.75;12.38;;;9.10;99.90;;;;;;5026810;28;20107;-60
2023/10/26 04:22:19;;;;;;;20.73;12.93;;;9.10;99.90;;;;;;5025158;28;20036;-60
2023/10/26 04:24:45;;;;;;;16.50;12.02;;;9.10;99.90;;;;;;5024302;28;20038;-60
2023/10/26 04:27:11;;;;;;;15.68;11.57;;;9.10;99.90;;;;;;5026368;28;20036;-61
2023/10/26 04:29:36;;;;;;;15.23;10.27;;;9.10;99.90;;;;;;5023103;28;20029;-61
2023/10/26 04:32:02;;;;;;;16.80;11.10;;;9.10;99.90;;;;;;5025454;28;20033;-60
2023/10/26 04:34:28;;;;;;;16.73;11.13;;;9.10;99.90;;;;;;5026041;28;20564;-61
2023/10/26 04:36:53;;;;;;;16.73;11.55;;;9.10;99.90;;;;;;5025683;28;20021;-62
2023/10/26 04:39:19;;;;;;;17.35;11.27;;;9.00;99.90;;;;;;5020165;28;20034;-61
2023/10/26 04:41:45;;;;;;;16.75;10.75;;;9.10;99.90;;;;;;5023757;28;20485;-61
2023/10/26 04:44:11;;;;;;;15.20;10.80;;;9.10;99.90;;;;;;5026206;28;20038;-58
2023/10/26 04:46:37;;;;;;;14.75;9.93;;;9.00;99.90;;;;;;5024256;28;20026;-61
2023/10/26 04:49:03;;;;;;;13.40;9.68;;;9.00;99.90;;;;;;5024949;28;20037;-61
2023/10/26 04:51:29;;;;;;;15.85;10.38;;;9.00;99.90;;;;;;5025419;28;20118;-60
2023/10/26 04:53:55;;;;;;;15.80;10.18;;;9.00;99.90;;;;;;5022515;28;20557;-60
2023/10/26 04:56:20;;;;;;;13.50;9.68;;;9.00;99.90;;;;;;5026497;28;20100;-61
2023/10/26 04:58:48;;;;;;;16.75;11.60;;;9.00;99.90;;;;;;5025451;28;20449;-61
2023/10/26 05:01:13;;;;;;;17.50;11.70;;;9.00;99.90;;;;;;5025706;28;20147;-60
2023/10/26 05:03:39;;;;;;;17.27;11.20;;;8.90;99.90;;;;;;5024912;28;20737;-61
2023/10/26 05:06:05;;;;;;;17.95;13.02;;;8.90;99.90;;;;;;5020377;28;20022;-60
2023/10/26 05:08:30;;;;;;;13.77;10.88;;;8.90;99.90;;;;;;5025672;28;20525;-61
2023/10/26 05:10:56;;;;;;;19.20;11.73;;;8.90;99.90;;;;;;5024399;28;20131;-60
2023/10/26 05:13:21;;;;;;;18.33;11.40;;;8.90;99.90;;;;;;5021615;28;20121;-60
2023/10/26 05:15:47;;;;;;;17.48;11.07;;;8.90;99.90;;;;;;5024376;28;20189;-60
2023/10/26 05:18:13;;;;;;;14.52;10.77;;;8.90;99.90;;;;;;5023653;28;20507;-61
2023/10/26 05:20:38;;;;;;;15.88;12.45;;;8.80;99.90;;;;;;5026341;28;20104;-61
2023/10/26 05:23:05;;;;;;;16.75;11.68;;;8.80;99.90;;;;;;5010014;28;20024;-61
2023/10/26 05:25:31;;;;;;;17.27;11.50;;;8.80;99.90;;;;;;5026922;28;20397;-60
2023/10/26 05:27:57;;;;;;;18.08;13.23;;;8.90;99.90;;;;;;5026993;28;20040;-61
2023/10/26 05:30:23;;;;;;;15.98;10.70;;;8.80;99.90;;;;;;5017386;28;20030;-60
2023/10/26 05:32:48;;;;;;;17.15;11.70;;;8.80;99.90;;;;;;5026613;28;20037;-60
2023/10/26 05:35:14;;;;;;;16.33;11.88;;;8.90;99.90;;;;;;5023905;28;20089;-61
2023/10/26 05:37:39;;;;;;;19.75;13.38;;;8.90;99.90;;;;;;5026710;28;20104;-61
2023/10/26 05:40:06;;;;;;;20.38;13.02;;;8.90;99.90;;;;;;5027240;28;20021;-61
2023/10/26 05:42:31;;;;;;;21.38;13.02;;;8.90;99.90;;;;;;5025468;28;20511;-61
2023/10/26 05:44:57;;;;;;;19.70;13.00;;;8.90;99.90;;;;;;5026800;28;20030;-58
2023/10/26 05:47:23;;;;;;;18.77;12.65;;;8.90;99.90;;;;;;5021460;28;20508;-60
2023/10/26 05:49:49;;;;;;;17.23;11.93;;;8.90;99.90;;;;;;5030647;28;20555;-60
2023/10/26 05:52:15;;;;;;;20.90;13.63;;;8.90;99.90;;;;;;5029927;28;20076;-60
2023/10/26 05:54:41;;;;;;;19.30;12.25;;;8.90;99.90;;;;;;5030180;28;20024;-60
2023/10/26 05:57:07;;;;;;;23.48;14.43;;;8.90;99.90;;;;;;5029536;28;20025;-60
2023/10/26 05:59:32;;;;;;;22.40;14.60;;;9.00;99.90;;;;;;5029804;28;20609;-60
2023/10/26 06:01:58;;;;;;;20.70;12.80;;;9.00;99.90;;;;;;5029306;28;20057;-61
2023/10/26 06:04:24;;;;;;;20.45;12.50;;;9.00;99.90;;;;;;5024499;28;20037;-59
2023/10/26 06:06:50;;;;;;;21.98;13.90;;;9.00;99.90;;;;;;5026582;28;20025;-61
2023/10/26 06:09:15;;;;;;;20.95;12.48;;;9.00;99.90;;;;;;5029187;28;20036;-61
2023/10/26 06:11:41;;;;;;;19.27;12.45;;;9.10;99.90;;;;;;5027669;28;20022;-61
2023/10/26 06:14:07;;;;;;;21.77;12.25;;;9.10;99.90;;;;;;5029135;28;20021;-60
2023/10/26 06:16:32;;;;;;;18.00;11.77;;;9.10;99.90;;;;;;5028880;28;20025;-60
2023/10/26 06:18:58;;;;;;;17.73;11.50;;;9.10;99.90;;;;;;5029397;28;20049;-61
2023/10/26 06:21:23;;;;;;;21.33;12.32;;;9.10;99.90;;;;;;5029118;28;20037;-58
2023/10/26 06:23:49;;;;;;;17.40;10.70;;;9.10;99.90;;;;;;5027503;28;20163;-61
2023/10/26 06:26:14;;;;;;;16.73;11.85;;;9.10;99.90;;;;;;5027440;28;20083;-59
2023/10/26 06:28:40;;;;;;;18.23;10.65;;;9.10;99.90;;;;;;5024455;28;20021;-61
2023/10/26 06:31:10;;;;;;;17.88;11.45;;;9.20;99.90;;;;;;5027187;28;20053;-60
2023/10/26 06:33:36;;;;;;;15.85;11.02;;;9.20;99.90;;;;;;5027196;28;20601;-61
2023/10/26 06:36:02;;;;;;;16.67;11.50;;;9.20;99.90;;;;;;5027576;28;20033;-61
2023/10/26 06:38:28;;;;;;;17.83;9.68;;;9.20;99.90;;;;;;5026310;28;20022;-60
2023/10/26 06:40:54;;;;;;;14.13;10.30;;;9.20;99.90;;;;;;5026841;28;20125;-61
2023/10/26 06:43:22;;;;;;;15.88;10.23;;;9.20;99.90;;;;;;5025893;28;20029;-60
2023/10/26 06:45:47;;;;;;;15.25;10.40;;;9.30;99.90;;;;;;5032943;28;20063;-61
2023/10/26 06:48:13;;;;;;;16.13;11.00;;;9.20;99.90;;;;;;5031374;28;20501;-60
2023/10/26 06:50:38;;;;;;;14.18;9.75;;;9.30;99.90;;;;;;5030623;28;20032;-59
2023/10/26 06:53:04;;;;;;;12.98;9.15;;;9.30;99.90;;;;;;5037391;28;20101;-62
2023/10/26 06:55:33;;;;;;;15.15;9.60;;;9.30;99.90;;;;;;5019273;28;20024;-61
2023/10/26 06:57:59;;;;;;;12.77;8.25;;;9.30;99.90;;;;;;5033906;28;20020;-60
2023/10/26 07:00:24;;;;;;;16.35;9.55;;;9.30;99.90;;;;;;5030232;28;20117;-60
2023/10/26 07:02:50;;;;;;;16.23;10.27;;;9.40;99.90;;;;;;5023954;28;20026;-59
2023/10/26 07:05:16;;;;;;;13.27;10.18;;;9.40;99.90;;;;;;5033709;28;20032;-60
2023/10/26 07:07:42;;;;;;;15.93;10.40;;;9.40;99.90;;;;;;5036225;28;20405;-60
2023/10/26 07:10:14;;;;;;;11.32;8.10;;;9.40;99.90;;;;;;5037586;28;20096;-60
2023/10/26 07:12:40;;;;;;;16.48;11.23;;;9.40;99.90;;;;;;5036957;28;20029;-57
2023/10/26 07:15:06;;;;;;;15.85;10.05;;;9.40;99.90;;;;;;5037164;28;20024;-61
2023/10/26 07:17:34;;;;;;;18.48;11.25;;;9.50;99.90;;;;;;5037357;28;20021;-60
2023/10/26 07:20:02;;;;;;;15.80;9.65;;;9.50;99.90;;;;;;5033055;28;20029;-61
2023/10/26 07:22:27;;;;;;;17.48;10.85;;;9.50;99.90;;;;;;5039103;28;20025;-61
2023/10/26 07:24:53;;;;;;;16.88;10.32;;;9.50;99.90;;;;;;5033324;28;20036;-61
2023/10/26 07:27:19;;;;;;;15.25;9.98;;;9.50;99.90;;;;;;5029472;28;20052;-61
2023/10/26 07:29:46;;;;;;;17.23;10.77;;;9.60;99.90;;;;;;5032673;28;20025;-61
2023/10/26 07:32:12;;;;;;;15.15;9.32;;;9.50;99.90;;;;;;5024866;28;20504;-61
2023/10/26 07:34:37;;;;;;;13.60;9.02;;;9.60;99.90;;;;;;5026336;28;20047;-61
2023/10/26 07:37:03;;;;;;;13.77;9.57;;;9.60;99.90;;;;;;5032672;28;20052;-61
2023/10/26 07:39:31;;;;;;;15.63;10.20;;;9.60;99.90;;;;;;5035501;28;20032;-60
2023/10/26 07:41:57;;;;;;;13.80;9.63;;;9.70;99.90;;;;;;5024297;28;20045;-62
2023/10/26 07:44:22;;;;;;;14.35;9.60;;;9.70;99.90;;;;;;5033818;28;20021;-59
2023/10/26 07:46:48;;;;;;;14.05;8.82;;;9.70;99.90;;;;;;5036158;28;20477;-60
2023/10/26 07:49:13;;;;;;;15.43;9.98;;;9.70;99.90;;;;;;5034630;28;20021;-60
2023/10/26 07:51:39;;;;;;;16.05;10.40;;;9.70;99.90;;;;;;5035486;28;20044;-60
2023/10/26 07:54:04;;;;;;;13.80;9.57;;;9.70;99.90;;;;;;5035677;28;20025;-60
2023/10/26 07:56:30;;;;;;;13.98;9.70;;;9.70;99.90;;;;;;5029342;28;20389;-61
2023/10/26 07:58:55;;;;;;;14.68;9.90;;;9.70;99.90;;;;;;5034365;28;20029;-60
2023/10/26 08:01:21;;;;;;;13.32;9.10;;;9.70;99.90;;;;;;5032757;28;20029;-60
2023/10/26 08:03:48;;;;;;;14.45;9.82;;;9.70;99.90;;;;;;5030298;28;20099;-59
2023/10/26 08:06:14;;;;;;;12.02;9.38;;;9.80;99.90;;;;;;5025034;28;20025;-61
2023/10/26 08:08:40;;;;;;;13.88;10.15;;;9.80;99.90;;;;;;5031096;28;20035;-59
2023/10/26 08:11:14;;;;;;;15.82;9.05;;;9.80;99.90;;;;;;5032129;28;20101;-60
2023/10/26 08:13:40;;;;;;;11.15;8.35;;;9.90;99.90;;;;;;5033076;28;20021;-59
2023/10/26 08:16:06;;;;;;;11.88;8.55;;;9.90;99.90;;;;;;5032780;28;20029;-59
2023/10/26 08:18:32;;;;;;;13.02;8.93;;;9.90;99.90;;;;;;5033521;28;20033;-60
2023/10/26 08:20:58;;;;;;;11.43;8.50;;;9.90;99.90;;;;;;5030206;28;20084;-61
2023/10/26 08:23:24;;;;;;;12.77;8.10;;;10.00;99.90;;;;;;5032922;28;20502;-60
2023/10/26 08:25:50;;;;;;;10.70;8.35;;;10.00;99.90;;;;;;5033552;28;20074;-60
2023/10/26 08:28:15;;;;;;;11.20;8.18;;;10.00;99.90;;;;;;5034124;28;20021;-60
2023/10/26 08:30:41;;;;;;;11.40;8.05;;;10.00;99.90;;;;;;5028566;28;20032;-59
2023/10/26 08:33:07;;;;;;;10.55;7.15;;;10.10;99.90;;;;;;5024791;28;20029;-60
2023/10/26 08:35:33;;;;;;;11.30;7.78;;;10.10;99.90;;;;;;5034536;28;20120;-61
2023/10/26 08:37:59;;;;;;;9.43;7.03;;;10.10;99.90;;;;;;5031928;28;20045;-60
2023/10/26 08:40:25;;;;;;;9.30;6.60;;;10.10;99.90;;;;;;5030960;28;20501;-60
2023/10/26 08:42:50;;;;;;;11.85;7.82;;;10.10;99.90;;;;;;5024531;28;20022;-59
2023/10/26 08:45:24;;;;;;;9.75;6.82;;;10.20;99.90;;;;;;5034369;28;20052;-60
2023/10/26 08:47:51;;;;;;;8.20;6.32;;;10.10;99.90;;;;;;5032112;28;20208;-59
2023/10/26 08:50:21;;;;;;;9.00;5.82;;;10.20;99.90;;;;;;5034232;28;20476;-60
2023/10/26 08:52:48;;;;;;;8.32;5.88;;;10.20;99.90;;;;;;5031278;28;20037;-60
2023/10/26 08:55:14;;;;;;;8.57;6.00;;;10.20;99.90;;;;;;5029544;28;20759;-59
2023/10/26 08:57:46;;;;;;;7.65;4.97;;;10.20;99.90;;;;;;5025804;28;20026;-59
2023/10/26 09:00:12;;;;;;;8.10;5.57;;;10.30;99.90;;;;;;5030420;28;20031;-60
2023/10/26 09:02:38;;;;;;;6.25;5.07;;;10.30;99.90;;;;;;5032441;28;20029;-59
2023/10/26 09:05:04;;;;;;;7.10;4.97;;;10.30;99.90;;;;;;5027008;28;20481;-60
2023/10/26 09:07:30;;;;;;;9.23;5.78;;;10.30;99.90;;;;;;5032007;28;20463;-59
2023/10/26 09:09:56;;;;;;;5.90;4.55;;;10.30;99.90;;;;;;5029857;28;20041;-60
2023/10/26 09:12:22;;;;;;;6.35;4.45;;;10.40;99.90;;;;;;5027580;28;20031;-61
2023/10/26 09:15:00;;;;;;;6.82;4.50;;;10.40;99.90;;;;;;5032852;28;20032;-60
2023/10/26 09:17:27;;;;;;;5.60;4.13;;;10.40;99.90;;;;;;5031032;28;20112;-60
2023/10/26 09:19:53;;;;;;;6.82;4.15;;;10.40;99.90;;;;;;5031382;28;20032;-61
2023/10/26 09:22:33;;;;;;;7.22;4.28;;;10.40;99.90;;;;;;5030855;28;20033;-60
2023/10/26 09:25:09;;;;;;;5.78;4.07;;;10.40;99.90;;;;;;5027146;28;20041;-61
2023/10/26 09:27:35;;;;;;;5.75;4.13;;;10.50;99.90;;;;;;5030439;28;20021;-60
2023/10/26 09:30:01;;;;;;;6.07;4.22;;;10.50;99.90;;;;;;5024962;28;20025;-59
2023/10/26 09:32:32;;;;;;;5.82;3.85;;;10.50;99.90;;;;;;5033001;28;20560;-60
2023/10/26 09:34:59;;;;;;;4.07;3.42;;;10.60;99.90;;;;;;5027780;28;20040;-61
2023/10/26 09:37:24;;;;;;;6.72;4.20;;;10.60;99.90;;;;;;5032865;28;20045;-60
2023/10/26 09:39:52;;;;;;;7.07;3.67;;;10.60;99.90;;;;;;5028083;28;20029;-59
2023/10/26 09:42:19;;;;;;;4.97;3.33;;;10.60;99.90;;;;;;5030432;28;20092;-60
2023/10/26 09:44:44;;;;;;;4.38;3.53;;;10.60;99.90;;;;;;5030534;28;20460;-61
2023/10/26 09:47:11;;;;;;;4.68;3.47;;;10.70;99.90;;;;;;5030254;28;20123;-58
2023/10/26 09:49:36;;;;;;;4.20;3.63;;;10.70;99.90;;;;;;5031595;28;20450;-60
2023/10/26 09:52:02;;;;;;;4.95;3.67;;;10.70;99.90;;;;;;5030026;28;20032;-61
2023/10/26 09:54:37;;;;;;;5.03;3.58;;;10.70;99.90;;;;;;5029098;28;20486;-61
2023/10/26 09:57:15;;;;;;;3.97;3.58;;;10.70;99.90;;;;;;5030116;28;20600;-61
2023/10/26 09:59:41;;;;;;;4.30;3.58;;;10.70;99.90;;;;;;5027067;28;20444;-61
2023/10/26 10:02:15;;;;;;;4.57;3.30;;;10.70;99.90;;;;;;5026156;28;20117;-61
2023/10/26 10:04:40;;;;;;;4.43;3.58;;;10.70;99.90;;;;;;5027073;28;20079;-61
2023/10/26 10:07:06;;;;;;;3.55;2.90;;;10.80;99.90;;;;;;5027509;28;20057;-61
2023/10/26 10:09:32;;;;;;;3.58;2.83;;;10.80;99.90;;;;;;5031217;28;20033;-62
2023/10/26 10:12:04;;;;;;;2.97;2.67;;;10.80;99.90;;;;;;5021091;28;20030;-61
2023/10/26 10:14:48;;;;;;;5.55;3.30;;;10.80;99.90;;;;;;5027539;28;20018;-61
2023/10/26 10:17:14;;;;;;;7.60;3.20;;;10.80;99.90;;;;;;5026880;28;20033;-62
2023/10/26 10:19:40;;;;;;;3.10;2.80;;;10.80;99.90;;;;;;5031246;28;20422;-59
2023/10/26 10:22:38;;;;;;;5.07;3.72;;;10.80;99.90;;;;;;5027330;28;20013;-61
2023/10/26 10:25:04;;;;;;;4.93;3.13;;;10.70;99.90;;;;;;5024577;28;20048;-60
2023/10/26 10:27:30;;;;;;;4.22;3.83;;;10.70;99.90;;;;;;5030321;28;20109;-61
2023/10/26 10:29:57;;;;;;;3.65;3.30;;;10.70;99.90;;;;;;5023449;28;20136;-59
2023/10/26 10:32:43;;;;;;;3.97;3.40;;;10.70;99.90;;;;;;5029886;28;20072;-60
2023/10/26 10:35:13;;;;;;;4.28;2.95;;;10.70;99.90;;;;;;5022841;28;20147;-62
2023/10/26 10:37:59;;;;;;;3.40;3.10;;;10.70;99.90;;;;;;5030772;28;20017;-61
2023/10/26 10:40:24;;;;;;;6.03;3.28;;;10.70;99.90;;;;;;5032120;28;20113;-61
2023/10/26 10:42:51;;;;;;;3.65;3.00;;;10.70;99.90;;;;;;5031533;28;20518;-61
2023/10/26 10:45:18;;;;;;;4.07;3.28;;;10.70;99.90;;;;;;5030276;28;20030;-62
2023/10/26 10:47:47;;;;;;;5.45;2.90;;;10.80;99.90;;;;;;5031004;28;20033;-61
2023/10/26 10:50:24;;;;;;;4.38;3.60;;;10.90;99.90;;;;;;5029838;28;20104;-60
2023/10/26 10:52:53;;;;;;;3.78;3.03;;;10.80;99.90;;;;;;5030698;28;20049;-62
2023/10/26 10:55:26;;;;;;;4.30;3.42;;;10.90;99.90;;;;;;5032261;28;20374;-62
2023/10/26 10:57:53;;;;;;;4.22;3.50;;;10.90;99.90;;;;;;5031739;28;20030;-62
2023/10/26 11:00:19;;;;;;;4.57;3.25;;;10.90;99.90;;;;;;5030182;28;20104;-61
2023/10/26 11:02:46;;;;;;;4.03;3.65;;;10.80;99.90;;;;;;5025349;28;20022;-61
2023/10/26 11:05:12;;;;;;;4.03;3.58;;;10.80;99.90;;;;;;5022913;28;20037;-61
2023/10/26 11:07:38;;;;;;;5.78;3.13;;;10.80;99.90;;;;;;5027847;28;20108;-61
2023/10/26 11:10:03;;;;;;;4.30;2.92;;;10.80;99.90;;;;;;5024893;28;20116;-60
2023/10/26 11:12:29;;;;;;;4.85;3.70;;;10.90;99.90;;;;;;5028020;28;20029;-61
2023/10/26 11:14:56;;;;;;;5.78;3.25;;;10.90;99.90;;;;;;5023874;28;20465;-58
2023/10/26 11:17:23;;;;;;;3.75;3.35;;;11.00;99.90;;;;;;5026769;28;20365;-59
2023/10/26 11:19:50;;;;;;;3.65;3.25;;;11.00;99.90;;;;;;5021926;28;20457;-61
2023/10/26 11:22:17;;;;;;;3.67;3.38;;;11.10;99.90;;;;;;5025157;28;20025;-60
2023/10/26 11:24:43;;;;;;;6.05;3.33;;;11.20;99.90;;;;;;5022484;28;20028;-62
2023/10/26 11:27:14;;;;;;;3.50;3.20;;;11.20;99.90;;;;;;5021003;28;20067;-61
2023/10/26 11:29:41;;;;;;;3.97;3.10;;;11.20;99.90;;;;;;5022443;28;20159;-60
2023/10/26 11:32:25;;;;;;;2.80;2.60;;;11.30;99.90;;;;;;5022593;28;20553;-62
2023/10/26 11:35:09;;;;;;;3.28;2.55;;;11.30;99.90;;;;;;5028301;28;20035;-58
2023/10/26 11:37:36;;;;;;;2.33;2.13;;;11.40;99.90;;;;;;5028749;28;20446;-61
2023/10/26 11:40:03;;;;;;;3.38;2.45;;;11.40;99.90;;;;;;5024570;28;20029;-60
2023/10/26 11:42:47;;;;;;;3.38;2.47;;;11.40;99.90;;;;;;5027667;28;20459;-61
2023/10/26 11:45:25;;;;;;;4.60;2.58;;;11.50;99.90;;;;;;5023872;28;20460;-60
2023/10/26 11:47:58;;;;;;;4.45;2.35;;;11.50;99.90;;;;;;5023667;28;20468;-59
2023/10/26 11:50:26;;;;;;;1.70;1.60;;;11.50;99.90;;;;;;5021947;28;20148;-61
2023/10/26 11:52:54;;;;;;;2.33;1.60;;;11.50;99.90;;;;;;5018377;28;20038;-62
2023/10/26 11:55:21;;;;;;;2.05;1.55;;;11.50;99.90;;;;;;5022975;28;20021;-59
2023/10/26 11:57:47;;;;;;;2.30;1.60;;;11.60;99.90;;;;;;5017632;28;20049;-59
2023/10/26 12:00:16;;;;;;;1.40;1.30;;;11.60;99.90;;;;;;5025549;28;20037;-60
2023/10/26 12:02:42;;;;;;;1.40;1.25;;;11.60;99.90;;;;;;5024445;28;20079;-61
2023/10/26 12:05:10;;;;;;;2.42;1.63;;;11.60;99.90;;;;;;5018327;28;20026;-61
2023/10/26 12:07:36;;;;;;;2.22;1.23;;;11.70;99.90;;;;;;5022739;28;20029;-59
2023/10/26 12:10:03;;;;;;;1.23;1.13;;;11.70;99.90;;;;;;5024534;28;20394;-58
2023/10/26 12:12:29;;;;;;;1.55;1.27;;;11.70;99.90;;;;;;5017635;28;20441;-59
2023/10/26 12:14:54;;;;;;;1.00;0.80;;;11.70;99.90;;;;;;5016300;28;20022;-62
2023/10/26 12:17:20;;;;;;;1.33;1.23;;;11.70;99.90;;;;;;5025459;28;20080;-59
2023/10/26 12:19:45;;;;;;;2.28;0.88;;;11.70;99.90;;;;;;5018220;28;20021;-59
2023/10/26 12:22:11;;;;;;;1.15;1.05;;;11.70;99.90;;;;;;5025570;28;20029;-59
2023/10/26 12:24:36;;;;;;;1.83;0.82;;;11.70;99.90;;;;;;5021660;28;20044;-61
2023/10/26 12:27:02;;;;;;;1.27;1.08;;;11.70;99.90;;;;;;5022045;28;20035;-61
2023/10/26 12:29:29;;;;;;;2.20;1.05;;;11.80;99.90;;;;;;5022396;28;20120;-62
2023/10/26 12:31:54;;;;;;;3.30;1.20;;;11.80;99.90;;;;;;5016722;28;20038;-60
2023/10/26 12:34:20;;;;;;;2.80;1.27;;;11.80;99.90;;;;;;5024523;28;20571;-61
2023/10/26 12:36:46;;;;;;;3.15;1.00;;;11.90;99.90;;;;;;5018393;28;20014;-61
2023/10/26 12:39:12;;;;;;;1.17;0.77;;;11.90;99.90;;;;;;5023251;28;20035;-61
2023/10/26 12:41:37;;;;;;;1.08;0.70;;;11.80;99.90;;;;;;5021977;28;20033;-61